createdAt,value
2018-04-22T00:01:32.533Z,15.37
2018-04-22T00:03:37.546Z,14.67
2018-04-22T00:05:42.515Z,14.13
2018-04-22T00:07:46.347Z,13.67
2018-04-22T00:09:50.500Z,16.27
2018-04-22T00:11:55.095Z,14.07
2018-04-22T00:13:58.993Z,16.40
2018-04-22T00:16:03.625Z,17.77
2018-04-22T00:18:07.432Z,14.60
2018-04-22T00:20:11.267Z,14.60
2018-04-22T00:22:15.217Z,14.93
2018-04-22T00:24:20.467Z,15.20
2018-04-22T00:26:25.132Z,15.37
2018-04-22T00:28:29.854Z,14.10
2018-04-22T00:30:34.018Z,18.20
2018-04-22T00:32:37.849Z,15.70
2018-04-22T00:34:41.874Z,14.50
2018-04-22T00:36:46.546Z,13.57
2018-04-22T00:38:51.265Z,15.07
2018-04-22T00:40:55.132Z,14.57
2018-04-22T00:42:59.989Z,13.53
2018-04-22T00:45:06.013Z,13.27
2018-04-22T00:47:09.814Z,13.53
2018-04-22T00:49:15.833Z,12.47
2018-04-22T00:51:19.697Z,14.37
2018-04-22T00:53:23.781Z,16.60
2018-04-22T00:55:28.661Z,14.33
2018-04-22T00:57:33.359Z,13.27
2018-04-22T00:59:37.186Z,12.90
2018-04-22T01:01:41.029Z,13.83
2018-04-22T01:03:44.877Z,16.20
2018-04-22T01:05:48.700Z,13.83
2018-04-22T01:07:52.798Z,12.50
2018-04-22T01:09:56.799Z,13.27
2018-04-22T01:12:00.644Z,12.57
2018-04-22T01:14:04.986Z,14.40
2018-04-22T01:16:08.857Z,14.87
2018-04-22T01:18:12.778Z,12.97
2018-04-22T01:20:17.111Z,14.70
2018-04-22T01:24:17.638Z,13.07
2018-04-22T01:26:21.766Z,13.20
2018-04-22T01:28:27.272Z,13.37
2018-04-22T01:30:31.056Z,13.33
2018-04-22T01:32:34.951Z,12.83
2018-04-22T01:34:38.768Z,13.27
2018-04-22T01:36:42.569Z,13.50
2018-04-22T01:38:46.778Z,14.90
2018-04-22T01:40:51.412Z,15.47
2018-04-22T01:42:55.177Z,12.70
2018-04-22T01:45:01.422Z,15.07
2018-04-22T01:47:06.048Z,12.37
2018-04-22T01:49:09.896Z,12.47
2018-04-22T01:51:14.039Z,12.97
2018-04-22T01:53:18.746Z,12.83
2018-04-22T01:55:23.448Z,12.70
2018-04-22T01:57:27.821Z,13.13
2018-04-22T01:59:31.633Z,15.67
2018-04-22T02:01:36.245Z,14.03
2018-04-22T02:03:40.396Z,14.10
2018-04-22T02:05:44.213Z,12.70
2018-04-22T02:07:48.079Z,12.17
2018-04-22T02:09:53.180Z,13.13
2018-04-22T02:11:57.041Z,12.87
2018-04-22T02:14:01.570Z,13.50
2018-04-22T02:16:05.824Z,12.90
2018-04-22T02:18:09.669Z,12.87
2018-04-22T02:20:14.215Z,13.27
2018-04-22T02:22:18.557Z,14.13
2018-04-22T02:24:22.393Z,14.07
2018-04-22T02:26:27.020Z,15.13
2018-04-22T02:28:32.881Z,14.73
2018-04-22T02:30:36.745Z,13.47
2018-04-22T02:32:40.674Z,13.27
2018-04-22T02:34:45.552Z,16.33
2018-04-22T02:36:49.409Z,14.67
2018-04-22T02:38:54.044Z,14.30
2018-04-22T02:41:00.676Z,13.50
2018-04-22T02:43:04.482Z,13.87
2018-04-22T02:45:08.309Z,14.07
2018-04-22T02:47:13.297Z,15.90
2018-04-22T02:49:17.134Z,13.97
2018-04-22T02:51:21.045Z,13.20
2018-04-22T02:53:25.676Z,13.10
2018-04-22T02:55:31.106Z,15.77
2018-04-22T02:57:34.984Z,14.27
2018-04-22T02:59:39.100Z,13.67
2018-04-22T03:01:43.393Z,14.43
2018-04-22T03:03:47.142Z,14.40
2018-04-22T03:05:53.048Z,14.47
2018-04-22T03:07:56.824Z,14.53
2018-04-22T03:10:00.682Z,16.27
2018-04-22T03:12:04.762Z,15.07
2018-04-22T03:14:08.534Z,15.60
2018-04-22T03:16:12.315Z,14.90
2018-04-22T03:18:17.430Z,15.30
2018-04-22T03:20:21.357Z,16.20
2018-04-22T03:22:25.972Z,15.87
2018-04-22T03:24:29.931Z,14.30
2018-04-22T03:26:33.875Z,16.60
2018-04-22T03:28:37.690Z,15.60
2018-04-22T03:30:45.812Z,14.97
2018-04-22T03:32:49.641Z,14.53
2018-04-22T03:34:53.775Z,15.10
2018-04-22T03:36:58.119Z,16.00
2018-04-22T03:39:02.110Z,15.97
2018-04-22T03:41:05.916Z,15.57
2018-04-22T03:43:09.715Z,15.40
2018-04-22T03:45:15.165Z,14.77
2018-04-22T03:47:19.013Z,14.63
2018-04-22T03:49:25.423Z,14.87
2018-04-22T03:51:29.244Z,14.97
2018-04-22T03:53:33.797Z,15.27
2018-04-22T03:55:39.238Z,15.37
2018-04-22T03:57:43.877Z,15.33
2018-04-22T03:59:47.751Z,15.13
2018-04-22T04:01:53.835Z,14.43
2018-04-22T04:03:58.418Z,14.97
2018-04-22T04:06:02.189Z,15.87
2018-04-22T04:08:06.041Z,15.37
2018-04-22T04:10:10.780Z,13.70
2018-04-22T04:12:14.668Z,15.23
2018-04-22T04:14:19.193Z,15.07
2018-04-22T04:16:23.744Z,14.60
2018-04-22T04:18:37.251Z,15.33
2018-04-22T04:20:52.980Z,15.10
2018-04-22T04:22:58.032Z,16.60
2018-04-22T04:27:15.648Z,15.83
2018-04-22T04:29:19.406Z,16.03
2018-04-22T04:31:24.415Z,18.40
2018-04-22T04:33:28.333Z,16.63
2018-04-22T04:35:32.157Z,17.90
2018-04-22T04:37:36.505Z,16.27
2018-04-22T04:39:40.340Z,16.20
2018-04-22T04:41:44.960Z,20.37
2018-04-22T04:43:48.807Z,17.13
2018-04-22T04:45:52.626Z,18.30
2018-04-22T04:47:56.521Z,17.70
2018-04-22T04:50:00.827Z,18.13
2018-04-22T04:52:04.621Z,17.40
2018-04-22T04:54:09.427Z,18.53
2018-04-22T04:56:13.562Z,17.80
2018-04-22T04:58:17.853Z,18.93
2018-04-22T05:00:21.774Z,21.70
2018-04-22T05:02:25.914Z,18.43
2018-04-22T05:04:29.767Z,19.63
2018-04-22T05:06:33.567Z,20.70
2018-04-22T05:08:37.379Z,18.87
2018-04-22T05:10:41.176Z,20.23
2018-04-22T05:12:45.015Z,21.00
2018-04-22T05:14:52.076Z,19.70
2018-04-22T05:16:56.745Z,18.93
2018-04-22T05:19:00.514Z,20.77
2018-04-22T05:21:04.799Z,20.23
2018-04-22T05:23:08.657Z,19.73
2018-04-22T05:25:19.013Z,20.20
2018-04-22T05:27:24.362Z,19.77
2018-04-22T05:29:28.174Z,20.20
2018-04-22T05:31:32.215Z,22.17
2018-04-22T05:33:36.065Z,21.30
2018-04-22T05:35:39.843Z,20.43
2018-04-22T05:37:43.713Z,21.37
2018-04-22T05:39:48.279Z,19.83
2018-04-22T05:41:52.949Z,20.23
2018-04-22T05:43:58.882Z,20.50
2018-04-22T05:46:03.194Z,19.70
2018-04-22T05:48:07.019Z,19.37
2018-04-22T05:50:10.880Z,21.40
2018-04-22T05:52:14.988Z,21.03
2018-04-22T05:54:19.547Z,20.37
2018-04-22T05:56:23.341Z,21.47
2018-04-22T05:58:27.493Z,20.93
2018-04-22T06:00:31.325Z,23.83
2018-04-22T06:02:35.136Z,23.53
2018-04-22T06:04:40.014Z,21.53
2018-04-22T06:06:43.778Z,23.17
2018-04-22T06:08:47.587Z,21.10
2018-04-22T06:10:51.958Z,20.70
2018-04-22T06:12:55.714Z,20.97
2018-04-22T06:15:00.251Z,22.00
2018-04-22T06:17:04.500Z,21.77
2018-04-22T06:19:09.089Z,20.27
2018-04-22T06:21:13.052Z,21.50
2018-04-22T06:23:17.232Z,20.50
2018-04-22T06:25:21.083Z,21.57
2018-04-22T06:27:24.968Z,20.53
2018-04-22T06:29:28.824Z,20.80
2018-04-22T06:31:32.666Z,20.67
2018-04-22T06:33:36.512Z,21.10
2018-04-22T06:35:40.751Z,20.03
2018-04-22T06:37:44.691Z,20.37
2018-04-22T06:39:49.828Z,19.33
2018-04-22T06:41:56.172Z,20.53
2018-04-22T06:44:00.011Z,20.50
2018-04-22T06:46:03.988Z,20.00
2018-04-22T06:48:08.167Z,19.87
2018-04-22T06:50:11.940Z,20.03
2018-04-22T06:52:15.913Z,21.47
2018-04-22T06:54:20.534Z,20.20
2018-04-22T06:56:24.437Z,19.83
2018-04-22T06:58:29.071Z,18.47
2018-04-22T07:00:34.225Z,19.73
2018-04-22T07:02:38.093Z,19.27
2018-04-22T07:04:42.711Z,19.17
2018-04-22T07:06:46.979Z,18.73
2018-04-22T07:08:51.169Z,19.07
2018-04-22T07:10:55.677Z,19.10
2018-04-22T07:13:00.618Z,21.67
2018-04-22T07:15:06.288Z,20.37
2018-04-22T07:17:10.084Z,18.97
2018-04-22T07:19:13.894Z,18.33
2018-04-22T07:21:17.740Z,18.90
2018-04-22T07:23:21.648Z,17.97
2018-04-22T07:25:25.744Z,19.27
2018-04-22T07:27:29.584Z,19.03
2018-04-22T07:29:34.195Z,19.07
2018-04-22T07:31:39.163Z,21.13
2018-04-22T07:33:43.069Z,19.17
2018-04-22T07:35:47.049Z,19.20
2018-04-22T07:37:52.100Z,20.20
2018-04-22T07:39:56.008Z,20.57
2018-04-22T07:41:59.940Z,20.50
2018-04-22T07:44:06.512Z,19.53
2018-04-22T07:46:10.472Z,18.83
2018-04-22T07:48:14.407Z,18.83
2018-04-22T07:50:18.242Z,19.70
2018-04-22T07:52:22.735Z,18.70
2018-04-22T07:54:26.552Z,20.47
2018-04-22T07:56:30.407Z,20.27
2018-04-22T07:58:37.382Z,20.10
2018-04-22T08:00:41.985Z,21.93
2018-04-22T08:02:45.867Z,19.77
2018-04-22T08:04:49.743Z,21.17
2018-04-22T08:06:54.612Z,20.90
2018-04-22T08:08:58.499Z,19.63
2018-04-22T08:11:02.711Z,20.40
2018-04-22T08:13:06.584Z,21.00
2018-04-22T08:15:13.289Z,21.00
2018-04-22T08:17:17.426Z,21.87
2018-04-22T08:19:21.275Z,20.53
2018-04-22T08:21:25.852Z,18.80
2018-04-22T08:23:30.846Z,19.57
2018-04-22T08:25:34.692Z,21.40
2018-04-22T08:27:38.659Z,21.17
2018-04-22T08:29:42.454Z,20.03
2018-04-22T08:31:47.052Z,21.43
2018-04-22T08:33:51.534Z,19.03
2018-04-22T08:35:56.608Z,21.77
2018-04-22T08:38:00.504Z,19.30
2018-04-22T08:40:05.130Z,19.17
2018-04-22T08:42:12.143Z,19.13
2018-04-22T08:44:16.045Z,20.47
2018-04-22T08:46:19.932Z,19.83
2018-04-22T08:48:24.064Z,19.73
2018-04-22T08:50:27.984Z,18.60
2018-04-22T08:52:31.777Z,19.83
2018-04-22T08:54:36.385Z,19.23
2018-04-22T08:56:40.294Z,19.47
2018-04-22T08:58:44.188Z,20.67
2018-04-22T09:00:48.446Z,19.77
2018-04-22T09:02:52.297Z,19.43
2018-04-22T09:04:56.123Z,20.93
2018-04-22T09:07:00.351Z,18.77
2018-04-22T09:09:04.409Z,19.37
2018-04-22T09:11:09.030Z,19.10
2018-04-22T09:13:13.964Z,19.63
2018-04-22T09:15:18.564Z,18.57
2018-04-22T09:17:22.417Z,18.73
2018-04-22T09:19:29.019Z,19.20
2018-04-22T09:21:32.873Z,20.47
2018-04-22T09:23:36.793Z,18.17
2018-04-22T09:25:41.020Z,22.60
2018-04-22T09:27:44.853Z,18.80
2018-04-22T09:29:48.841Z,22.03
2018-04-22T09:31:53.989Z,20.47
2018-04-22T09:33:57.984Z,20.67
2018-04-22T09:36:02.039Z,21.93
2018-04-22T09:38:06.377Z,21.83
2018-04-22T09:40:10.237Z,20.07
2018-04-22T09:42:14.222Z,22.00
2018-04-22T09:44:18.418Z,21.63
2018-04-22T09:46:22.258Z,21.90
2018-04-22T09:48:26.110Z,20.03
2018-04-22T09:50:29.985Z,20.60
2018-04-22T09:52:34.759Z,21.47
2018-04-22T09:54:38.613Z,20.60
2018-04-22T09:56:43.537Z,19.03
2018-04-22T09:58:47.492Z,20.37
2018-04-22T10:00:55.486Z,21.13
2018-04-22T10:02:59.934Z,20.60
2018-04-22T10:05:08.395Z,20.67
2018-04-22T10:07:13.300Z,21.33
2018-04-22T10:09:17.452Z,20.47
2018-04-22T10:11:21.344Z,19.23
2018-04-22T10:13:25.323Z,20.30
2018-04-22T10:15:29.143Z,20.80
2018-04-22T10:17:33.001Z,18.63
2018-04-22T10:19:36.875Z,17.60
2018-04-22T10:21:41.022Z,18.83
2018-04-22T10:23:44.869Z,17.43
2018-04-22T10:25:49.531Z,18.60
2018-04-22T10:27:54.553Z,17.77
2018-04-22T10:29:58.348Z,16.93
2018-04-22T10:32:02.375Z,18.13
2018-04-22T10:34:06.480Z,15.80
2018-04-22T10:36:10.406Z,15.90
2018-04-22T10:38:14.453Z,16.13
2018-04-22T10:40:18.263Z,14.60
2018-04-22T10:42:22.127Z,14.27
2018-04-22T10:44:25.918Z,15.50
2018-04-22T10:46:30.355Z,17.33
2018-04-22T10:48:34.190Z,14.97
2018-04-22T10:50:38.457Z,13.37
2018-04-22T10:52:42.682Z,12.73
2018-04-22T10:54:46.544Z,14.47
2018-04-22T10:56:52.162Z,13.93
2018-04-22T10:58:56.502Z,14.00
2018-04-22T11:01:00.454Z,15.43
2018-04-22T11:03:04.464Z,16.00
2018-04-22T11:05:09.973Z,14.13
2018-04-22T11:07:13.876Z,16.47
2018-04-22T11:09:18.551Z,13.73
2018-04-22T11:11:23.228Z,12.90
2018-04-22T11:13:27.116Z,13.07
2018-04-22T11:15:31.729Z,14.20
2018-04-22T11:17:36.625Z,13.27
2018-04-22T11:19:40.495Z,17.37
2018-04-22T11:21:44.400Z,15.60
2018-04-22T11:23:48.667Z,17.63
2018-04-22T11:25:52.510Z,16.90
2018-04-22T11:27:56.461Z,16.70
2018-04-22T11:30:01.728Z,17.48
2018-04-22T11:32:05.673Z,16.53
2018-04-22T11:34:09.562Z,15.47
2018-04-22T11:36:13.532Z,17.52
2018-04-22T11:38:17.492Z,14.57
2018-04-22T11:40:21.454Z,14.27
2018-04-22T11:42:26.497Z,15.50
2018-04-22T11:44:30.388Z,15.52
2018-04-22T11:46:34.294Z,16.98
2018-04-22T11:48:39.700Z,17.02
2018-04-22T11:50:43.641Z,16.87
2018-04-22T11:52:47.440Z,16.67
2018-04-22T11:54:51.711Z,16.62
2018-04-22T11:56:56.432Z,17.55
2018-04-22T11:59:00.254Z,15.80
2018-04-22T12:01:04.126Z,15.52
2018-04-22T12:03:08.371Z,16.40
2018-04-22T12:05:12.302Z,16.90
2018-04-22T12:07:17.545Z,18.10
2018-04-22T12:09:21.379Z,14.50
2018-04-22T12:11:25.997Z,13.95
2018-04-22T12:13:30.221Z,15.95
2018-04-22T12:15:34.307Z,15.30
2018-04-22T12:17:38.967Z,15.80
2018-04-22T12:19:43.122Z,12.67
2018-04-22T12:21:46.960Z,14.15
2018-04-22T12:23:51.540Z,15.37
2018-04-22T12:25:55.382Z,13.38
2018-04-22T12:27:59.986Z,14.53
2018-04-22T12:30:04.856Z,14.75
2018-04-22T12:32:10.198Z,14.33
2018-04-22T12:34:14.091Z,17.27
2018-04-22T12:36:17.911Z,14.27
2018-04-22T12:38:29.079Z,13.10
2018-04-22T12:40:32.972Z,11.17
2018-04-22T12:42:36.992Z,12.55
2018-04-22T12:44:41.442Z,10.38
2018-04-22T12:46:45.280Z,11.43
2018-04-22T12:48:49.881Z,11.35
2018-04-22T12:50:53.710Z,10.10
2018-04-22T12:52:58.437Z,10.20
2018-04-22T12:55:03.964Z,11.17
2018-04-22T12:57:08.950Z,15.25
2018-04-22T12:59:12.876Z,11.23
2018-04-22T13:01:16.868Z,14.27
2018-04-22T13:03:21.254Z,11.30
2018-04-22T13:05:25.908Z,11.63
2018-04-22T13:07:29.784Z,11.02
2018-04-22T13:09:33.908Z,8.68
2018-04-22T13:11:37.718Z,8.40
2018-04-22T13:13:41.697Z,9.15
2018-04-22T13:15:46.661Z,11.10
2018-04-22T13:17:50.505Z,7.90
2018-04-22T13:19:54.336Z,8.85
2018-04-22T13:21:58.857Z,8.60
2018-04-22T13:24:03.564Z,8.65
2018-04-22T13:26:07.484Z,12.68
2018-04-22T13:28:14.429Z,9.90
2018-04-22T13:30:18.300Z,9.02
2018-04-22T13:32:22.295Z,8.73
2018-04-22T13:34:26.717Z,11.38
2018-04-22T13:36:30.525Z,8.63
2018-04-22T13:38:34.355Z,10.20
2018-04-22T13:40:39.491Z,9.45
2018-04-22T13:42:43.354Z,8.75
2018-04-22T13:44:47.578Z,8.07
2018-04-22T13:46:51.461Z,8.60
2018-04-22T13:48:56.406Z,8.48
2018-04-22T13:51:00.869Z,8.13
2018-04-22T13:53:05.045Z,7.57
2018-04-22T13:55:08.946Z,11.52
2018-04-22T13:57:12.802Z,7.37
2018-04-22T13:59:17.933Z,7.87
2018-04-22T14:01:21.807Z,7.93
2018-04-22T14:03:25.742Z,7.32
2018-04-22T14:05:29.835Z,9.70
2018-04-22T14:07:33.758Z,7.85
2018-04-22T14:09:37.638Z,9.63
2018-04-22T14:11:41.479Z,6.97
2018-04-22T14:13:45.402Z,9.43
2018-04-22T14:15:49.414Z,8.73
2018-04-22T14:17:53.607Z,6.50
2018-04-22T14:19:57.529Z,7.90
2018-04-22T14:22:02.942Z,6.00
2018-04-22T14:24:07.792Z,7.05
2018-04-22T14:26:12.478Z,6.80
2018-04-22T14:28:16.288Z,9.65
2018-04-22T14:30:21.477Z,5.97
2018-04-22T14:32:25.357Z,7.90
2018-04-22T14:34:29.152Z,7.97
2018-04-22T14:36:32.991Z,12.93
2018-04-22T14:38:36.998Z,10.32
2018-04-22T14:40:40.948Z,8.60
2018-04-22T14:42:44.782Z,6.65
2018-04-22T14:46:56.434Z,5.47
2018-04-22T14:49:07.024Z,7.90
2018-04-22T14:51:11.391Z,7.45
2018-04-22T14:53:15.540Z,8.20
2018-04-22T14:55:19.792Z,6.55
2018-04-22T14:57:24.507Z,5.57
2018-04-22T14:59:28.388Z,9.25
2018-04-22T15:01:32.272Z,7.68
2018-04-22T15:03:36.276Z,5.72
2018-04-22T15:05:40.098Z,7.12
2018-04-22T15:07:44.250Z,10.27
2018-04-22T15:09:49.182Z,6.12
2018-04-22T15:11:53.116Z,6.75
2018-04-22T15:13:57.355Z,7.18
2018-04-22T15:16:01.976Z,11.12
2018-04-22T15:18:05.784Z,6.32
2018-04-22T15:20:10.143Z,7.50
2018-04-22T15:22:14.806Z,6.70
2018-04-22T15:24:18.815Z,9.23
2018-04-22T15:26:25.103Z,8.23
2018-04-22T15:28:29.866Z,7.93
2018-04-22T15:30:34.442Z,7.62
2018-04-22T15:32:38.440Z,5.78
2018-04-22T15:34:42.249Z,6.15
2018-04-22T15:36:46.293Z,7.37
2018-04-22T15:38:52.822Z,7.80
2018-04-22T15:40:57.737Z,6.00
2018-04-22T15:43:01.544Z,11.02
2018-04-22T15:45:09.963Z,9.55
2018-04-22T15:47:13.826Z,6.60
2018-04-22T15:49:17.691Z,7.00
2018-04-22T15:51:21.907Z,6.93
2018-04-22T15:53:25.848Z,6.82
2018-04-22T15:55:30.559Z,8.70
2018-04-22T15:57:35.512Z,9.00
2018-04-22T15:59:39.294Z,7.75
2018-04-22T16:01:43.292Z,6.93
2018-04-22T16:03:47.389Z,7.85
2018-04-22T16:05:51.228Z,5.47
2018-04-22T16:07:55.935Z,7.82
2018-04-22T16:10:00.114Z,8.27
2018-04-22T16:12:04.622Z,6.93
2018-04-22T16:14:09.073Z,6.75
2018-04-22T16:16:13.257Z,7.35
2018-04-22T16:18:17.065Z,6.15
2018-04-22T16:20:20.934Z,5.07
2018-04-22T16:22:25.516Z,7.90
2018-04-22T16:24:29.458Z,4.30
2018-04-22T16:26:34.090Z,6.07
2018-04-22T16:28:38.241Z,6.65
2018-04-22T16:30:42.873Z,4.55
2018-04-22T16:32:46.765Z,4.37
2018-04-22T16:34:51.013Z,4.40
2018-04-22T16:36:54.891Z,3.60
2018-04-22T16:38:58.810Z,4.90
2018-04-22T16:41:02.923Z,4.40
2018-04-22T16:43:06.796Z,4.68
2018-04-22T16:45:14.851Z,5.60
2018-04-22T16:47:18.769Z,5.65
2018-04-22T16:49:22.763Z,6.40
2018-04-22T16:51:26.598Z,4.60
2018-04-22T16:53:34.236Z,6.47
2018-04-22T16:55:44.482Z,5.70
2018-04-22T16:57:48.374Z,4.25
2018-04-22T16:59:52.669Z,4.40
2018-04-22T17:01:56.732Z,4.90
2018-04-22T17:04:00.661Z,4.90
2018-04-22T17:06:04.974Z,6.43
2018-04-22T17:08:08.764Z,3.70
2018-04-22T17:10:13.807Z,3.75
2018-04-22T17:12:18.398Z,5.90
2018-04-22T17:14:22.389Z,4.90
2018-04-22T17:16:26.456Z,4.30
2018-04-22T17:18:32.792Z,3.70
2018-04-22T17:20:36.659Z,4.70
2018-04-22T17:22:40.632Z,5.30
2018-04-22T17:24:46.597Z,5.40
2018-04-22T17:26:50.482Z,5.13
2018-04-22T17:28:55.190Z,6.87
2018-04-22T17:30:59.515Z,5.33
2018-04-22T17:33:04.157Z,7.50
2018-04-22T17:35:09.100Z,4.33
2018-04-22T17:37:12.979Z,6.20
2018-04-22T17:39:18.556Z,6.53
2018-04-22T17:41:22.371Z,5.70
2018-04-22T17:43:26.475Z,5.43
2018-04-22T17:45:30.472Z,5.43
2018-04-22T17:47:34.444Z,10.10
2018-04-22T17:49:41.484Z,4.97
2018-04-22T17:51:45.351Z,7.80
2018-04-22T17:53:49.348Z,5.43
2018-04-22T17:55:53.649Z,4.43
2018-04-22T17:57:58.299Z,6.50
2018-04-22T18:00:02.330Z,6.27
2018-04-22T18:02:08.905Z,3.83
2018-04-22T18:04:13.350Z,3.87
2018-04-22T18:06:17.185Z,3.80
2018-04-22T18:08:21.770Z,7.80
2018-04-22T18:10:25.924Z,5.40
2018-04-22T18:12:29.912Z,4.80
2018-04-22T18:14:34.887Z,4.10
2018-04-22T18:16:38.740Z,5.13
2018-04-22T18:18:42.666Z,5.93
2018-04-22T18:20:47.663Z,8.03
2018-04-22T18:22:51.597Z,6.77
2018-04-22T18:24:56.347Z,5.13
2018-04-22T18:27:02.545Z,5.30
2018-04-22T18:29:06.341Z,6.57
2018-04-22T18:31:10.193Z,5.80
2018-04-22T18:33:14.837Z,4.63
2018-04-22T18:35:18.813Z,3.97
2018-04-22T18:37:23.457Z,6.20
2018-04-22T18:39:28.375Z,6.23
2018-04-22T18:41:32.259Z,6.90
2018-04-22T18:43:36.133Z,4.43
2018-04-22T18:45:40.292Z,9.13
2018-04-22T18:47:44.245Z,6.87
2018-04-22T18:49:48.911Z,5.23
2018-04-22T18:51:53.078Z,5.70
2018-04-22T18:53:57.004Z,4.10
2018-04-22T18:56:00.913Z,4.93
2018-04-22T18:58:04.814Z,6.67
2018-04-22T19:00:08.992Z,5.33
2018-04-22T19:02:12.847Z,5.50
2018-04-22T19:04:16.985Z,7.20
2018-04-22T19:06:21.554Z,5.37
2018-04-22T19:08:25.521Z,7.53
2018-04-22T19:10:29.821Z,6.17
2018-04-22T19:12:34.517Z,4.73
2018-04-22T19:14:38.469Z,7.87
2018-04-22T19:16:42.606Z,7.93
2018-04-22T19:18:46.520Z,5.07
2018-04-22T19:20:50.446Z,7.53
2018-04-22T19:22:55.219Z,8.13
2018-04-22T19:24:59.117Z,6.43
2018-04-22T19:27:02.940Z,7.87
2018-04-22T19:29:06.781Z,7.10
2018-04-22T19:31:10.595Z,5.43
2018-04-22T19:33:14.401Z,7.83
2018-04-22T19:35:19.601Z,7.47
2018-04-22T19:37:23.802Z,7.53
2018-04-22T19:39:27.646Z,6.77
2018-04-22T19:41:31.781Z,7.40
2018-04-22T19:43:35.673Z,7.73
2018-04-22T19:45:39.583Z,6.00
2018-04-22T19:47:43.551Z,6.87
2018-04-22T19:49:47.394Z,9.57
2018-04-22T19:51:51.260Z,7.20
2018-04-22T19:53:55.228Z,8.67
2018-04-22T19:55:59.073Z,6.33
2018-04-22T19:58:02.878Z,9.07
2018-04-22T20:00:10.378Z,9.50
2018-04-22T20:02:14.278Z,8.30
2018-04-22T20:04:18.887Z,6.87
2018-04-22T20:06:23.304Z,6.13
2018-04-22T20:08:27.175Z,5.90
2018-04-22T20:10:31.760Z,6.83
2018-04-22T20:12:36.688Z,8.70
2018-04-22T20:14:40.583Z,8.97
2018-04-22T20:16:44.433Z,7.47
2018-04-22T20:18:48.341Z,7.80
2018-04-22T20:20:52.239Z,12.27
2018-04-22T20:22:56.828Z,6.10
2018-04-22T20:25:00.985Z,8.67
2018-04-22T20:27:04.978Z,10.43
2018-04-22T20:29:09.658Z,7.93
2018-04-22T20:31:13.886Z,7.87
2018-04-22T20:33:18.660Z,7.27
2018-04-22T20:35:22.493Z,6.13
2018-04-22T20:37:26.783Z,9.57
2018-04-22T20:39:30.684Z,7.00
2018-04-22T20:41:35.254Z,6.37
2018-04-22T20:43:39.151Z,9.53
2018-04-22T20:45:43.060Z,7.43
2018-04-22T20:47:46.885Z,11.27
2018-04-22T20:49:53.561Z,9.90
2018-04-22T20:51:57.435Z,6.27
2018-04-22T20:54:01.497Z,8.67
2018-04-22T20:56:05.985Z,6.63
2018-04-22T20:58:10.746Z,6.37
2018-04-22T21:00:15.662Z,8.03
2018-04-22T21:02:19.941Z,10.77
2018-04-22T21:04:23.743Z,11.13
2018-04-22T21:06:27.636Z,9.67
2018-04-22T21:08:31.569Z,8.70
2018-04-22T21:10:35.535Z,7.30
2018-04-22T21:12:39.385Z,11.73
2018-04-22T21:14:44.619Z,11.40
2018-04-22T21:16:48.547Z,9.50
2018-04-22T21:18:53.224Z,10.97
2018-04-22T21:20:57.343Z,7.03
2018-04-22T21:23:01.176Z,9.13
2018-04-22T21:25:05.053Z,7.60
2018-04-22T21:27:09.574Z,10.57
2018-04-22T21:29:13.453Z,8.97
2018-04-22T21:31:17.295Z,10.50
2018-04-22T21:33:21.122Z,12.20
2018-04-22T21:35:25.817Z,12.40
2018-04-22T21:37:29.666Z,11.73
2018-04-22T21:39:34.412Z,7.47
2018-04-22T21:41:38.275Z,7.80
2018-04-22T21:43:42.855Z,9.90
2018-04-22T21:45:47.096Z,7.27
2018-04-22T21:47:51.011Z,9.20
2018-04-22T21:49:54.867Z,6.30
2018-04-22T21:51:59.037Z,9.47
2018-04-22T21:54:02.986Z,7.80
2018-04-22T21:56:07.060Z,12.50
2018-04-22T21:58:11.354Z,10.73
2018-04-22T22:00:17.504Z,8.47
2018-04-22T22:02:21.450Z,7.37
2018-04-22T22:04:26.629Z,13.67
2018-04-22T22:06:30.452Z,8.97
2018-04-22T22:08:34.243Z,8.30
2018-04-22T22:10:38.505Z,11.93
2018-04-22T22:12:43.112Z,8.67
2018-04-22T22:14:46.998Z,7.67
2018-04-22T22:16:51.073Z,7.97
2018-04-22T22:18:54.949Z,11.60
2018-04-22T22:20:59.134Z,7.83
2018-04-22T22:23:03.308Z,8.77
2018-04-22T22:25:07.181Z,12.20
2018-04-22T22:27:11.027Z,8.50
2018-04-22T22:29:14.800Z,10.13
2018-04-22T22:31:18.628Z,11.10
2018-04-22T22:33:22.405Z,9.63
2018-04-22T22:35:26.671Z,9.20
2018-04-22T22:37:30.430Z,11.17
2018-04-22T22:39:35.363Z,11.23
2018-04-22T22:41:39.617Z,9.70
2018-04-22T22:43:43.518Z,11.83
2018-04-22T22:45:47.393Z,10.77
2018-04-22T22:47:51.515Z,8.90
2018-04-22T22:49:55.343Z,12.57
2018-04-22T22:51:59.942Z,8.17
2018-04-22T22:54:03.782Z,9.27
2018-04-22T22:56:08.424Z,12.03
2018-04-22T22:58:12.180Z,10.47
2018-04-22T23:00:17.199Z,8.47
2018-04-22T23:02:21.038Z,10.37
2018-04-22T23:04:25.611Z,12.27
2018-04-22T23:06:29.712Z,9.77
2018-04-22T23:08:33.629Z,9.07
2018-04-22T23:10:37.513Z,9.87
2018-04-22T23:12:41.676Z,11.83
2018-04-22T23:14:45.558Z,11.83
2018-04-22T23:16:49.423Z,10.33
2018-04-22T23:18:53.212Z,10.37
2018-04-22T23:20:57.831Z,10.20
2018-04-22T23:23:01.614Z,9.90
2018-04-22T23:25:05.417Z,10.07
2018-04-22T23:27:09.136Z,12.47
2018-04-22T23:29:12.959Z,16.47
2018-04-22T23:31:18.038Z,12.07
2018-04-22T23:33:22.002Z,10.53
2018-04-22T23:35:25.818Z,7.90
2018-04-22T23:37:30.160Z,9.43
2018-04-22T23:39:34.007Z,12.77
2018-04-22T23:41:38.464Z,12.30
2018-04-22T23:43:42.734Z,12.30
2018-04-22T23:45:46.526Z,10.17
2018-04-22T23:47:50.296Z,13.30
2018-04-22T23:49:54.376Z,12.27
2018-04-22T23:51:58.137Z,12.30
2018-04-22T23:54:01.995Z,12.07
2018-04-22T23:56:06.417Z,9.23
2018-04-22T23:58:10.294Z,9.20
